| time (UTC) | temp F | wind direction | speed MPH | gust MPH | rain 1hr in | rain 24hr in | rain mn in | humidity % | barometer mb |
| 20260507091729 | 49 | 135 | 0.0 | 0.0 | 0.00 | 0.55 | 0.28 | 96 | 1032.4 |
| 20260507085728 | 49 | 135 | 0.0 | 0.0 | 0.03 | 0.55 | 0.28 | 96 | 1032.3 |
| 20260507084746 | 49 | 135 | 0.0 | 0.0 | 0.04 | 0.55 | 0.28 | 95 | 1032.4 |
| 20260507083828 | 49 | 135 | 0.0 | 0.0 | 0.06 | 0.55 | 0.28 | 95 | 1032.2 |
| 20260507082827 | 48 | 135 | 0.0 | 0.0 | 0.07 | 0.55 | 0.28 | 95 | 1032.4 |
| 20260507080927 | 49 | 135 | 0.0 | 0.0 | 0.08 | 0.53 | 0.26 | 94 | 1032.6 |
| 20260507075828 | 49 | 135 | 0.0 | 0.0 | 0.08 | 0.52 | 0.25 | 94 | 1032.4 |
| 20260507074828 | 49 | 135 | 0.0 | 0.0 | 0.07 | 0.51 | 0.24 | 94 | 1032.7 |
| 20260507073927 | 49 | 135 | 0.0 | 0.0 | 0.06 | 0.49 | 0.22 | 95 | 1033.0 |
| 20260507072928 | 50 | 135 | 0.0 | 0.0 | 0.07 | 0.48 | 0.21 | 95 | 1032.9 |
| 20260507071928 | 50 | 135 | 0.0 | 0.0 | 0.08 | 0.46 | 0.19 | 95 | 1033.1 |
| 20260507070928 | 50 | 135 | 0.0 | 0.0 | 0.09 | 0.45 | 0.18 | 95 | 1033.1 |
| 20260507070027 | 50 | 135 | 0.0 | 0.0 | 0.10 | 0.45 | 0.18 | 94 | 1032.9 |
| 20260507065030 | 50 | 135 | 0.0 | 0.0 | 0.10 | 0.44 | 0.17 | 95 | 1032.9 |
| 20260507064929 | 50 | 135 | 0.0 | 0.0 | 0.10 | 0.44 | 0.17 | 95 | 1032.8 |
| 20260507063928 | 50 | 90 | 0.0 | 0.0 | 0.09 | 0.43 | 0.16 | 93 | 1032.7 |
| 20260507062928 | 50 | 90 | 0.0 | 0.0 | 0.07 | 0.41 | 0.14 | 93 | 1032.7 |
| 20260507062829 | 50 | 90 | 0.0 | 0.0 | 0.07 | 0.41 | 0.14 | 93 | 1032.9 |
| 20260507061828 | 51 | 90 | 0.0 | 0.0 | 0.10 | 0.38 | 0.11 | 93 | 1033.0 |
| 20260507060829 | 51 | 90 | 0.0 | 0.0 | 0.09 | 0.36 | 0.09 | 93 | 1032.9 |
| 20260507055926 | 51 | 90 | 0.0 | 0.0 | 0.08 | 0.35 | 0.08 | 92 | 1033.0 |
| 20260507054928 | 52 | 90 | 0.0 | 0.0 | 0.07 | 0.34 | 0.07 | 93 | 1032.4 |
| 20260507052028 | 53 | 47 | 1.0 | 3.0 | 0.03 | 0.30 | 0.01 | 92 | 1032.2 |
| 20260507051928 | 53 | 102 | 1.0 | 3.0 | 0.01 | 0.28 | 0.01 | 92 | 1032.8 |
| 20260507051027 | 54 | 157 | 0.0 | 0.0 | 0.00 | 0.27 | 0.00 | 92 | 1032.4 |
| 20260507050029 | 54 | 135 | 0.0 | 0.0 | 0.00 | 0.27 | 0.00 | 92 | 1031.7 |
| 20260507045128 | 55 | 135 | 0.0 | 0.0 | 0.00 | 0.27 | 0.00 | 91 | 1031.8 |
| 20260507044128 | 55 | 135 | 0.0 | 0.0 | 0.00 | 0.27 | 0.00 | 91 | 1031.7 |
| 20260507042229 | 55 | 135 | 0.0 | 0.0 | 0.00 | 0.27 | 0.00 | 91 | 1031.2 |
| 20260507041328 | 56 | 135 | 0.0 | 0.0 | 0.01 | 0.27 | 0.00 | 92 | 1031.6 |
| 20260507035411 | 57 | 135 | 0.0 | 0.0 | 0.01 | 0.27 | 0.27 | 91 | 1032.1 |
| 20260507032411 | 58 | 135 | 0.0 | 0.0 | 0.01 | 0.27 | 0.27 | 89 | 1031.6 |
| 20260507031411 | 61 | 180 | 0.0 | 0.0 | 0.00 | 0.26 | 0.26 | 89 | 1031.7 |
| 20260507030508 | 62 | 80 | 1.0 | 2.0 | 0.03 | 0.26 | 0.26 | 92 | 1031.2 |
| 20260507025511 | 62 | 360 | 0.0 | 0.0 | 0.03 | 0.26 | 0.26 | 91 | 1030.9 |
| 20260507025411 | 62 | 360 | 0.0 | 0.0 | 0.03 | 0.26 | 0.26 | 91 | 1030.8 |
| 20260507023411 | 62 | 360 | 0.0 | 0.0 | 0.12 | 0.26 | 0.26 | 90 | 1031.2 |
| 20260507022412 | 63 | 360 | 0.0 | 0.0 | 0.12 | 0.26 | 0.26 | 90 | 1031.1 |
| 20260507022313 | 63 | 360 | 0.0 | 0.0 | 0.12 | 0.26 | 0.26 | 91 | 1031.1 |
| 20260507021312 | 63 | 360 | 0.0 | 0.0 | 0.12 | 0.26 | 0.25 | 90 | 1031.2 |
| 20260507020410 | 63 | 360 | 0.0 | 0.0 | 0.09 | 0.23 | 0.23 | 89 | 1031.3 |
| 20260507014310 | 64 | 360 | 0.0 | 0.0 | 0.02 | 0.16 | 0.16 | 86 | 1031.3 |
| 20260507013312 | 64 | 360 | 0.0 | 0.0 | 0.00 | 0.14 | 0.14 | 86 | 1030.9 |
| 20260507012310 | 64 | 360 | 0.0 | 0.0 | 0.00 | 0.14 | 0.14 | 87 | 1030.8 |
| 20260507011311 | 64 | 360 | 0.0 | 0.0 | 0.00 | 0.14 | 0.14 | 86 | 1030.7 |
| 20260507010410 | 63 | 360 | 0.0 | 0.0 | 0.00 | 0.14 | 0.14 | 85 | 1030.8 |
| 20260507005411 | 63 | 360 | 0.0 | 0.0 | 0.00 | 0.14 | 0.14 | 86 | 1031.0 |
| 20260507004410 | 64 | 360 | 0.0 | 0.0 | 0.00 | 0.14 | 0.14 | 84 | 1030.6 |
| 20260507004311 | 64 | 360 | 0.0 | 0.0 | 0.00 | 0.14 | 0.14 | 85 | 1030.5 |
| 20260507003312 | 64 | 360 | 0.0 | 0.0 | 0.00 | 0.14 | 0.14 | 84 | 1030.3 |
| 20260507002410 | 65 | 360 | 0.0 | 0.0 | 0.00 | 0.14 | 0.14 | 84 | 1030.2 |
| 20260507001411 | 65 | 360 | 0.0 | 0.0 | 0.00 | 0.14 | 0.14 | 82 | 1030.0 |
| 20260507000412 | 65 | 360 | 0.0 | 0.0 | 0.00 | 0.14 | 0.14 | 81 | 1030.0 |
| 20260506235410 | 65 | 360 | 0.0 | 0.0 | 0.00 | 0.14 | 0.14 | 82 | 1029.9 |
| 20260506235311 | 65 | 360 | 0.0 | 0.0 | 0.00 | 0.14 | 0.14 | 81 | 1029.9 |
| 20260506234311 | 66 | 360 | 0.0 | 0.0 | 0.00 | 0.14 | 0.14 | 80 | 1030.1 |
| 20260506233310 | 66 | 360 | 0.0 | 0.0 | 0.00 | 0.14 | 0.14 | 81 | 1030.0 |
| 20260506231408 | 66 | 337 | 0.0 | 0.0 | 0.00 | 0.14 | 0.14 | 79 | 1030.0 |
| 20260506230411 | 67 | 337 | 0.0 | 0.0 | 0.00 | 0.14 | 0.14 | 79 | 1030.0 |
| 20260506223411 | 67 | 45 | 0.0 | 2.0 | 0.00 | 0.14 | 0.14 | 77 | 1029.8 |
| 20260506223310 | 67 | 131 | 0.0 | 0.0 | 0.00 | 0.14 | 0.14 | 78 | 1029.8 |
| 20260506223210 | 67 | 135 | 0.0 | 0.0 | 0.00 | 0.14 | 0.14 | 78 | 1029.7 |
| 20260506222211 | 67 | 135 | 0.0 | 0.0 | 0.01 | 0.14 | 0.14 | 78 | 1029.6 |
| 20260506220309 | 68 | 45 | 0.0 | 0.0 | 0.01 | 0.14 | 0.14 | 76 | 1029.8 |
| 20260506220211 | 68 | 45 | 0.0 | 1.0 | 0.01 | 0.14 | 0.14 | 76 | 1029.8 |
| 20260506215308 | 68 | 315 | 0.0 | 0.0 | 0.01 | 0.14 | 0.14 | 77 | 1029.4 |
| 20260506215210 | 68 | 282 | 0.0 | 1.0 | 0.01 | 0.14 | 0.14 | 77 | 1029.5 |
| 20260506213311 | 67 | 225 | 0.0 | 1.0 | 0.01 | 0.14 | 0.14 | 78 | 1029.7 |
| 20260506211411 | 66 | 315 | 0.0 | 0.0 | 0.00 | 0.13 | 0.13 | 79 | 1029.3 |
| 20260506210510 | 66 | 55 | 0.0 | 3.0 | 0.00 | 0.13 | 0.13 | 79 | 1029.4 |
| 20260506210411 | 66 | 360 | 0.0 | 0.0 | 0.00 | 0.13 | 0.13 | 80 | 1029.4 |
| 20260506205410 | 66 | 98 | 0.0 | 3.0 | 0.00 | 0.13 | 0.13 | 81 | 1029.4 |
| 20260506204510 | 65 | 281 | 0.0 | 1.0 | 0.00 | 0.13 | 0.13 | 82 | 1029.4 |
| 20260506204410 | 65 | 114 | 1.0 | 4.0 | 0.00 | 0.13 | 0.13 | 82 | 1029.4 |
| 20260506203411 | 65 | 180 | 0.0 | 0.0 | 0.00 | 0.13 | 0.13 | 84 | 1029.2 |
| 20260506202510 | 64 | 360 | 0.0 | 0.0 | 0.00 | 0.13 | 0.13 | 84 | 1029.3 |
| 20260506202412 | 64 | 360 | 0.0 | 1.0 | 0.00 | 0.13 | 0.13 | 84 | 1029.3 |
| 20260506201509 | 64 | 316 | 0.0 | 3.0 | 0.00 | 0.13 | 0.13 | 84 | 1029.4 |
| 20260506200509 | 64 | 180 | 0.0 | 0.0 | 0.00 | 0.13 | 0.13 | 85 | 1029.4 |
| 20260506195511 | 63 | 337 | 0.0 | 2.0 | 0.00 | 0.13 | 0.13 | 86 | 1029.5 |
| 20260506194511 | 63 | 67 | 0.0 | 0.0 | 0.00 | 0.13 | 0.13 | 88 | 1029.7 |
| 20260506194409 | 63 | 67 | 0.0 | 0.0 | 0.00 | 0.13 | 0.13 | 88 | 1029.7 |
| 20260506193410 | 62 | 67 | 0.0 | 0.0 | 0.00 | 0.13 | 0.13 | 88 | 1029.7 |
| 20260506192410 | 62 | 202 | 0.0 | 0.0 | 0.00 | 0.13 | 0.13 | 89 | 1029.9 |
| 20260506191410 | 62 | 57 | 0.0 | 2.0 | 0.00 | 0.13 | 0.13 | 90 | 1030.1 |
| 20260506190410 | 62 | 67 | 0.0 | 0.0 | 0.00 | 0.13 | 0.13 | 90 | 1030.2 |
| 20260506185409 | 62 | 45 | 0.0 | 2.0 | 0.00 | 0.13 | 0.13 | 90 | 1030.1 |
| 20260506183509 | 61 | 184 | 0.0 | 6.0 | 0.00 | 0.13 | 0.13 | 90 | 1030.3 |
| 20260506183412 | 61 | 157 | 0.0 | 0.0 | 0.00 | 0.13 | 0.13 | 91 | 1030.3 |
| 20260506182411 | 61 | 67 | 0.0 | 0.0 | 0.00 | 0.13 | 0.13 | 91 | 1030.4 |
| 20260506181411 | 61 | 91 | 1.0 | 7.0 | 0.00 | 0.13 | 0.13 | 91 | 1030.5 |
| 20260506181311 | 61 | 360 | 0.0 | 1.0 | 0.00 | 0.13 | 0.13 | 91 | 1030.4 |
| 20260506175311 | 61 | 315 | 0.0 | 0.0 | 0.00 | 0.13 | 0.13 | 91 | 1030.4 |
| 20260506175211 | 61 | 315 | 0.0 | 0.0 | 0.00 | 0.13 | 0.13 | 90 | 1030.6 |
| 20260506174212 | 61 | 22 | 0.0 | 0.0 | 0.01 | 0.13 | 0.13 | 91 | 1030.5 |
| 20260506173211 | 61 | 22 | 0.0 | 5.0 | 0.01 | 0.13 | 0.13 | 90 | 1030.6 |
| 20260506172211 | 62 | 360 | 0.0 | 0.0 | 0.02 | 0.13 | 0.13 | 90 | 1030.7 |
| 20260506171210 | 62 | 199 | 0.0 | 2.0 | 0.02 | 0.13 | 0.13 | 89 | 1030.7 |
| 20260506170212 | 62 | 36 | 0.0 | 0.0 | 0.04 | 0.13 | 0.13 | 91 | 1030.6 |
| 20260506165310 | 62 | 318 | 0.0 | 2.0 | 0.05 | 0.13 | 0.13 | 89 | 1030.6 |
| 20260506164311 | 62 | 41 | 1.0 | 2.0 | 0.05 | 0.12 | 0.12 | 90 | 1030.6 |
| 20260506163310 | 62 | 14 | 1.0 | 4.0 | 0.07 | 0.12 | 0.12 | 89 | 1030.6 |
| 20260506162310 | 62 | 51 | 1.0 | 3.0 | 0.08 | 0.11 | 0.11 | 90 | 1031.0 |
| 20260506161409 | 62 | 324 | 0.0 | 2.0 | 0.09 | 0.11 | 0.11 | 88 | 1031.5 |
| 20260506160412 | 62 | 6 | 0.0 | 2.0 | 0.10 | 0.10 | 0.10 | 88 | 1031.8 |
| 20260506155410 | 62 | 45 | 0.0 | 0.0 | 0.08 | 0.08 | 0.08 | 86 | 1032.2 |
| 20260506154428 | 62 | 45 | 0.0 | 0.0 | 0.07 | 0.07 | 0.07 | 84 | 1032.2 |
| 20260506154312 | 62 | 45 | 0.0 | 0.0 | 0.07 | 0.07 | 0.07 | 85 | 1032.2 |
| 20260506154209 | 62 | 45 | 0.0 | 1.0 | 0.07 | 0.07 | 0.06 | 84 | 1032.2 |
| 20260506153211 | 62 | 45 | 0.0 | 0.0 | 0.05 | 0.05 | 0.04 | 84 | 1032.1 |
| 20260506152212 | 63 | 45 | 0.0 | 2.0 | 0.03 | 0.03 | 0.03 | 81 | 1032.2 |
| 20260506145411 | 65 | 270 | 0.0 | 0.0 | 0.00 | 0.00 | 0.00 | 75 | 1031.8 |
| 20260506144410 | 66 | 90 | 0.0 | 1.0 | 0.00 | 0.00 | 0.00 | 73 | 1032.0 |
| 20260506143410 | 67 | 337 | 0.0 | 0.0 | 0.00 | 0.00 | 0.00 | 68 | 1032.1 |
| 20260506142411 | 67 | 315 | 0.0 | 0.0 | 0.00 | 0.00 | 0.00 | 65 | 1032.0 |
| 20260506141410 | 68 | 189 | 1.0 | 5.0 | 0.00 | 0.00 | 0.00 | 64 | 1031.8 |
| 20260506140410 | 68 | 299 | 1.0 | 4.0 | 0.00 | 0.00 | 0.00 | 65 | 1031.7 |
| 20260506135509 | 67 | 287 | 0.0 | 3.0 | 0.00 | 0.00 | 0.00 | 66 | 1031.7 |
| 20260506134510 | 67 | 358 | 0.0 | 3.0 | 0.00 | 0.00 | 0.00 | 68 | 1031.7 |
| 20260506133511 | 66 | 352 | 0.0 | 2.0 | 0.00 | 0.00 | 0.00 | 68 | 1031.9 |
| 20260506132510 | 67 | 337 | 0.0 | 1.0 | 0.00 | 0.00 | 0.00 | 67 | 1031.7 |
| 20260506131511 | 67 | 288 | 0.0 | 2.0 | 0.00 | 0.00 | 0.00 | 67 | 1031.6 |
| 20260506123512 | 66 | 78 | 0.0 | 1.0 | 0.00 | 0.00 | 0.00 | 70 | 1032.1 |
| 20260506122610 | 65 | 45 | 0.0 | 2.0 | 0.00 | 0.00 | 0.00 | 71 | 1031.7 |
| 20260506122511 | 65 | 318 | 0.0 | 3.0 | 0.00 | 0.00 | 0.00 | 70 | 1031.8 |
| 20260506121609 | 65 | 225 | 0.0 | 0.0 | 0.00 | 0.00 | 0.00 | 70 | 1031.8 |
| 20260506121527 | 65 | 267 | 0.0 | 1.0 | 0.00 | 0.00 | 0.00 | 71 | 1031.8 |
| 20260506120612 | 64 | 90 | 0.0 | 2.0 | 0.00 | 0.00 | 0.00 | 72 | 1032.1 |
| 20260506115708 | 64 | 270 | 0.0 | 1.0 | 0.00 | 0.00 | 0.00 | 73 | 1032.0 |
| 20260506115610 | 64 | 286 | 0.0 | 2.0 | 0.00 | 0.00 | 0.00 | 73 | 1031.9 |
| 20260506114610 | 64 | 357 | 0.0 | 3.0 | 0.00 | 0.00 | 0.00 | 72 | 1032.1 |
| 20260506114510 | 64 | 337 | 0.0 | 0.0 | 0.00 | 0.00 | 0.00 | 72 | 1032.0 |
| 20260506113609 | 64 | 277 | 0.0 | 1.0 | 0.00 | 0.00 | 0.00 | 73 | 1031.7 |
| 20260506113510 | 64 | 52 | 0.0 | 3.0 | 0.00 | 0.00 | 0.00 | 72 | 1031.7 |
| 20260506112510 | 64 | 45 | 1.0 | 4.0 | 0.00 | 0.00 | 0.00 | 72 | 1031.8 |
| 20260506111610 | 64 | 45 | 0.0 | 1.0 | 0.00 | 0.00 | 0.00 | 73 | 1031.9 |
| 20260506105613 | 63 | 45 | 0.0 | 4.0 | 0.00 | 0.00 | 0.00 | 75 | 1031.8 |
| 20260506104709 | 63 | 71 | 0.0 | 3.0 | 0.00 | 0.00 | 0.00 | 75 | 1031.7 |
| 20260506103710 | 63 | 180 | 0.0 | 0.0 | 0.00 | 0.00 | 0.00 | 75 | 1031.7 |
| 20260506102711 | 63 | 315 | 0.0 | 0.0 | 0.00 | 0.00 | 0.00 | 76 | 1031.7 |
| 20260506101809 | 63 | 204 | 0.0 | 0.0 | 0.00 | 0.00 | 0.00 | 76 | 1031.7 |
| 20260506095810 | 63 | 45 | 0.0 | 1.0 | 0.00 | 0.00 | 0.00 | 75 | 1031.7 |
| 20260506094811 | 63 | 360 | 0.0 | 2.0 | 0.00 | 0.00 | 0.00 | 74 | 1031.6 |
| 20260506093909 | 63 | 337 | 0.0 | 2.0 | 0.00 | 0.00 | 0.00 | 74 | 1031.5 |